createdAt,value
2019-05-29T00:01:21.972Z,6.33
2019-05-29T00:03:51.578Z,6.27
2019-05-29T00:06:22.184Z,5.53
2019-05-29T00:08:51.597Z,5.70
2019-05-29T00:11:21.959Z,6.13
2019-05-29T00:13:52.567Z,5.67
2019-05-29T00:16:22.954Z,5.57
2019-05-29T00:18:58.181Z,6.20
2019-05-29T00:21:26.328Z,5.80
2019-05-29T00:23:57.112Z,5.50
2019-05-29T00:26:26.932Z,7.27
2019-05-29T00:28:55.399Z,6.60
2019-05-29T00:31:27.633Z,6.20
2019-05-29T00:33:57.104Z,6.40
2019-05-29T00:36:26.576Z,6.07
2019-05-29T00:38:56.035Z,6.10
2019-05-29T00:41:28.094Z,5.97
2019-05-29T00:43:56.546Z,6.13
2019-05-29T00:46:25.996Z,6.13
2019-05-29T00:48:56.464Z,5.30
2019-05-29T00:51:27.083Z,6.10
2019-05-29T00:53:57.902Z,5.67
2019-05-29T00:56:27.791Z,6.50
2019-05-29T00:58:56.588Z,5.77
2019-05-29T01:01:27.360Z,5.70
2019-05-29T01:03:56.712Z,5.13
2019-05-29T01:06:26.072Z,5.60
2019-05-29T01:08:55.488Z,5.53
2019-05-29T01:11:27.294Z,5.70
2019-05-29T01:13:57.699Z,4.93
2019-05-29T01:16:28.461Z,5.37
2019-05-29T01:19:00.599Z,5.50
2019-05-29T01:21:32.677Z,5.30
2019-05-29T01:24:03.118Z,5.47
2019-05-29T01:26:32.588Z,4.90
2019-05-29T01:29:03.242Z,5.00
2019-05-29T01:31:34.315Z,5.17
2019-05-29T01:34:04.810Z,5.00
2019-05-29T01:36:35.221Z,4.70
2019-05-29T01:39:07.090Z,4.50
2019-05-29T01:41:38.951Z,5.53
2019-05-29T01:44:08.104Z,4.70
2019-05-29T01:46:37.503Z,4.63
2019-05-29T01:49:10.167Z,4.67
2019-05-29T01:51:42.029Z,5.03
2019-05-29T01:54:12.547Z,4.70
2019-05-29T01:56:42.436Z,5.00
2019-05-29T01:59:12.042Z,5.23
2019-05-29T02:01:42.509Z,4.23
2019-05-29T02:04:13.033Z,4.70
2019-05-29T02:06:44.897Z,4.83
2019-05-29T02:09:17.985Z,4.10
2019-05-29T02:11:47.416Z,4.40
2019-05-29T02:14:18.514Z,4.20
2019-05-29T02:16:48.941Z,4.40
2019-05-29T02:19:19.853Z,4.93
2019-05-29T02:21:50.454Z,4.60
2019-05-29T02:24:21.190Z,4.87
2019-05-29T02:26:51.507Z,4.63
2019-05-29T02:29:20.857Z,4.60
2019-05-29T02:31:50.756Z,4.53
2019-05-29T02:34:22.657Z,4.57
2019-05-29T02:36:56.719Z,4.87
2019-05-29T02:39:29.413Z,4.70
2019-05-29T02:42:00.436Z,4.60
2019-05-29T02:44:30.197Z,4.47
2019-05-29T02:47:01.221Z,4.80
2019-05-29T02:49:30.698Z,4.57
2019-05-29T02:52:00.608Z,4.77
2019-05-29T02:54:32.512Z,5.13
2019-05-29T02:57:01.892Z,4.80
2019-05-29T02:59:32.083Z,4.90
2019-05-29T03:02:02.896Z,4.83
2019-05-29T03:04:33.003Z,5.00
2019-05-29T03:07:04.245Z,4.87
2019-05-29T03:09:34.751Z,4.77
2019-05-29T03:12:04.263Z,5.20
2019-05-29T03:14:35.004Z,5.13
2019-05-29T03:17:05.395Z,4.50
2019-05-29T03:19:35.028Z,4.83
2019-05-29T03:22:06.978Z,4.77
2019-05-29T03:24:36.499Z,4.50
2019-05-29T03:27:09.458Z,4.57
2019-05-29T03:29:38.930Z,4.17
2019-05-29T03:32:14.012Z,3.87
2019-05-29T03:34:47.023Z,3.97
2019-05-29T03:37:13.173Z,4.00
2019-05-29T03:39:43.557Z,4.40
2019-05-29T03:42:14.502Z,4.43
2019-05-29T03:44:45.658Z,4.53
2019-05-29T03:47:16.255Z,4.03
2019-05-29T03:49:46.174Z,3.80
2019-05-29T03:52:16.367Z,3.93
2019-05-29T03:54:46.845Z,4.23
2019-05-29T03:57:16.455Z,4.50
2019-05-29T03:59:45.814Z,3.87
2019-05-29T04:02:17.773Z,4.37
2019-05-29T04:04:50.763Z,3.37
2019-05-29T04:07:20.270Z,3.60
2019-05-29T04:09:49.733Z,4.10
2019-05-29T04:12:20.519Z,3.80
2019-05-29T04:14:49.997Z,3.50
2019-05-29T04:17:21.328Z,3.60
2019-05-29T04:19:50.630Z,3.80
2019-05-29T04:22:28.329Z,3.57
2019-05-29T04:25:00.273Z,3.63
2019-05-29T04:27:32.146Z,4.20
2019-05-29T04:30:04.118Z,3.80
2019-05-29T04:32:36.608Z,4.27
2019-05-29T04:35:07.051Z,3.77
2019-05-29T04:37:39.687Z,3.77
2019-05-29T04:40:12.431Z,3.47
2019-05-29T04:42:43.251Z,3.90
2019-05-29T04:45:14.175Z,3.80
2019-05-29T04:47:44.890Z,3.67
2019-05-29T04:50:15.402Z,3.90
2019-05-29T04:52:45.812Z,4.03
2019-05-29T04:55:15.215Z,4.23
2019-05-29T04:57:45.577Z,4.27
2019-05-29T05:00:16.505Z,3.90
2019-05-29T05:02:47.222Z,4.50
2019-05-29T05:05:19.623Z,4.53
2019-05-29T05:07:51.015Z,4.60
2019-05-29T05:10:37.645Z,4.60
2019-05-29T05:13:09.020Z,4.30
2019-05-29T05:15:40.354Z,4.47
2019-05-29T05:18:10.751Z,5.03
2019-05-29T05:20:41.078Z,5.03
2019-05-29T05:23:10.354Z,5.30
2019-05-29T05:25:41.132Z,4.90
2019-05-29T05:28:10.649Z,5.23
2019-05-29T05:30:40.840Z,5.17
2019-05-29T05:33:14.754Z,5.27
2019-05-29T05:35:42.656Z,5.10
2019-05-29T05:38:13.208Z,4.80
2019-05-29T05:40:43.268Z,4.60
2019-05-29T05:43:23.519Z,5.30
2019-05-29T05:45:45.019Z,5.07
2019-05-29T05:48:15.443Z,4.90
2019-05-29T05:50:45.815Z,4.60
2019-05-29T05:53:16.398Z,5.00
2019-05-29T05:55:46.856Z,4.93
2019-05-29T05:58:16.248Z,5.13
2019-05-29T06:00:46.615Z,4.63
2019-05-29T06:03:15.442Z,5.30
2019-05-29T06:05:48.058Z,4.80
2019-05-29T06:08:17.454Z,5.07
2019-05-29T06:10:50.615Z,5.33
2019-05-29T06:13:19.687Z,5.10
2019-05-29T06:15:48.941Z,5.00
2019-05-29T06:18:21.483Z,4.53
2019-05-29T06:20:51.740Z,4.60
2019-05-29T06:23:22.132Z,4.77
2019-05-29T06:25:52.541Z,5.47
2019-05-29T06:28:21.835Z,5.00
2019-05-29T06:30:52.513Z,5.40
2019-05-29T06:33:25.112Z,5.60
2019-05-29T06:35:57.506Z,5.77
2019-05-29T06:38:26.873Z,6.57
2019-05-29T06:40:58.540Z,6.13
2019-05-29T06:43:28.921Z,6.37
2019-05-29T06:45:58.440Z,6.00
2019-05-29T06:48:42.451Z,5.17
2019-05-29T06:51:05.366Z,5.10
2019-05-29T06:53:37.613Z,5.93
2019-05-29T06:56:07.292Z,5.57
2019-05-29T06:58:38.097Z,4.97
2019-05-29T07:01:08.558Z,5.10
2019-05-29T07:03:41.484Z,4.90
2019-05-29T07:06:11.297Z,4.87
2019-05-29T07:08:45.104Z,5.10
2019-05-29T07:11:12.802Z,4.73
2019-05-29T07:13:45.238Z,4.80
2019-05-29T07:16:15.833Z,4.47
2019-05-29T07:19:20.437Z,4.80
2019-05-29T07:21:17.553Z,4.87
2019-05-29T07:23:48.796Z,4.50
2019-05-29T07:26:17.483Z,5.30
2019-05-29T07:29:06.354Z,4.80
2019-05-29T07:31:20.851Z,4.87
2019-05-29T07:33:50.140Z,4.97
2019-05-29T07:36:20.608Z,5.20
2019-05-29T07:39:01.798Z,5.23
2019-05-29T07:41:22.471Z,4.90
2019-05-29T07:43:53.429Z,5.70
2019-05-29T07:46:22.753Z,5.30
2019-05-29T07:48:53.230Z,5.30
2019-05-29T07:51:23.667Z,5.53
2019-05-29T07:53:55.410Z,5.43
2019-05-29T07:56:26.149Z,8.47
2019-05-29T07:59:02.506Z,6.60
2019-05-29T08:01:31.039Z,5.23
2019-05-29T08:04:00.446Z,5.10
2019-05-29T08:06:31.362Z,5.50
2019-05-29T08:09:00.688Z,5.27
2019-05-29T08:11:33.668Z,5.80
2019-05-29T08:14:02.997Z,5.80
2019-05-29T08:16:33.481Z,5.60
2019-05-29T08:19:07.877Z,5.50
2019-05-29T08:21:35.018Z,5.93
2019-05-29T08:24:05.429Z,5.93
2019-05-29T08:26:36.434Z,6.10
2019-05-29T08:29:06.158Z,5.53
2019-05-29T08:31:35.584Z,5.53
2019-05-29T08:34:08.916Z,6.27
2019-05-29T08:36:39.320Z,5.10
2019-05-29T08:39:09.852Z,5.43
2019-05-29T08:41:39.084Z,4.87
2019-05-29T08:44:09.148Z,4.60
2019-05-29T08:46:39.693Z,3.77
2019-05-29T08:49:09.050Z,4.10
2019-05-29T08:51:39.362Z,4.27
2019-05-29T08:54:23.604Z,3.73
2019-05-29T08:56:42.266Z,3.63
2019-05-29T08:59:12.872Z,3.10
2019-05-29T09:01:42.852Z,3.07
2019-05-29T09:04:13.473Z,3.10
2019-05-29T09:06:44.702Z,3.20
2019-05-29T09:09:15.344Z,2.83
2019-05-29T09:11:47.381Z,2.53
2019-05-29T09:14:18.652Z,1.63
2019-05-29T09:16:50.766Z,2.00
2019-05-29T09:19:22.767Z,1.30
2019-05-29T09:21:54.777Z,1.40
2019-05-29T09:24:25.071Z,1.30
2019-05-29T09:26:54.428Z,1.10
2019-05-29T09:29:26.718Z,0.97
2019-05-29T09:31:57.768Z,1.17
2019-05-29T09:34:28.163Z,1.13
2019-05-29T09:36:57.527Z,1.50
2019-05-29T09:39:26.916Z,1.20
2019-05-29T09:41:59.592Z,1.03
2019-05-29T09:44:38.415Z,1.30
2019-05-29T09:47:00.116Z,1.20
2019-05-29T09:49:29.554Z,1.00
2019-05-29T09:51:58.049Z,1.30
2019-05-29T09:54:27.525Z,1.40
2019-05-29T09:56:58.271Z,1.20
2019-05-29T09:59:29.076Z,1.37
2019-05-29T10:02:02.159Z,1.33
2019-05-29T10:04:30.533Z,1.40
2019-05-29T10:06:59.985Z,1.10
2019-05-29T10:09:31.226Z,0.90
2019-05-29T10:12:04.945Z,1.30
2019-05-29T10:14:33.411Z,1.20
2019-05-29T10:17:11.083Z,1.20
2019-05-29T10:19:35.143Z,0.93
2019-05-29T10:22:05.704Z,1.23
2019-05-29T10:24:36.582Z,1.40
2019-05-29T10:27:06.837Z,1.57
2019-05-29T10:29:37.293Z,1.23
2019-05-29T10:32:06.125Z,1.47
2019-05-29T10:34:36.540Z,1.33
2019-05-29T10:37:06.045Z,1.47
2019-05-29T10:39:36.773Z,1.63
2019-05-29T10:42:08.057Z,1.97
2019-05-29T10:44:38.464Z,1.60
2019-05-29T10:47:07.773Z,2.13
2019-05-29T10:49:37.345Z,1.40
2019-05-29T10:52:15.647Z,1.70
2019-05-29T10:54:44.095Z,1.40
2019-05-29T10:57:14.882Z,1.47
2019-05-29T10:59:44.638Z,2.93
2019-05-29T11:02:14.064Z,2.50
2019-05-29T11:04:47.606Z,3.07
2019-05-29T11:07:14.623Z,1.63
2019-05-29T11:09:45.111Z,5.80
2019-05-29T11:12:16.932Z,2.07
2019-05-29T11:14:46.540Z,2.20
2019-05-29T11:17:16.920Z,1.47
2019-05-29T11:19:47.718Z,1.93
2019-05-29T11:22:26.371Z,1.00
2019-05-29T11:24:50.306Z,1.77
2019-05-29T11:27:19.682Z,1.73
2019-05-29T11:29:50.532Z,1.50
2019-05-29T11:32:20.089Z,1.37
2019-05-29T11:34:52.339Z,1.30
2019-05-29T11:37:21.795Z,1.20
2019-05-29T11:39:52.442Z,1.87
2019-05-29T11:42:27.176Z,2.10
2019-05-29T11:44:55.306Z,1.67
2019-05-29T11:47:25.706Z,4.60
2019-05-29T11:49:55.238Z,3.57
2019-05-29T11:52:26.566Z,1.73
2019-05-29T11:54:57.987Z,1.53
2019-05-29T11:57:31.203Z,1.83
2019-05-29T12:00:09.769Z,2.37
2019-05-29T12:02:33.599Z,1.83
2019-05-29T12:05:03.963Z,1.60
2019-05-29T12:07:34.423Z,1.50
2019-05-29T12:10:05.331Z,1.33
2019-05-29T12:12:35.987Z,1.57
2019-05-29T12:15:13.484Z,2.00
2019-05-29T12:17:38.701Z,1.40
2019-05-29T12:20:26.450Z,1.10
2019-05-29T12:23:07.298Z,1.30
2019-05-29T12:25:14.752Z,1.50
2019-05-29T12:27:46.237Z,1.70
2019-05-29T12:30:30.081Z,1.27
2019-05-29T12:33:01.165Z,1.20
2019-05-29T12:35:30.621Z,1.20
2019-05-29T12:38:03.527Z,1.30
2019-05-29T12:40:35.499Z,1.80
2019-05-29T12:43:05.962Z,1.77
2019-05-29T12:45:36.545Z,1.00
2019-05-29T12:48:12.896Z,1.20
2019-05-29T12:50:39.170Z,1.47
2019-05-29T12:53:09.785Z,1.40
2019-05-29T12:55:42.066Z,2.90
2019-05-29T12:58:11.464Z,1.37
2019-05-29T13:00:41.775Z,1.10
2019-05-29T13:03:11.451Z,1.47
2019-05-29T13:05:41.807Z,1.30
2019-05-29T13:08:12.229Z,1.97
2019-05-29T13:10:44.182Z,1.23
2019-05-29T13:13:13.672Z,1.43
2019-05-29T13:15:43.022Z,1.30
2019-05-29T13:18:12.529Z,0.90
2019-05-29T13:20:42.880Z,1.20
2019-05-29T13:23:13.892Z,1.53
2019-05-29T13:25:45.842Z,1.20
2019-05-29T13:28:16.302Z,1.30
2019-05-29T13:30:45.590Z,0.80
2019-05-29T13:33:16.998Z,1.50
2019-05-29T13:35:49.491Z,1.10
2019-05-29T13:38:19.959Z,1.20
2019-05-29T13:40:50.873Z,1.07
2019-05-29T13:43:20.298Z,1.23
2019-05-29T13:45:49.025Z,1.00
2019-05-29T13:48:18.395Z,1.27
2019-05-29T13:50:50.518Z,0.90
2019-05-29T13:53:20.876Z,0.90
2019-05-29T13:55:50.238Z,1.07
2019-05-29T13:58:21.114Z,1.00
2019-05-29T14:00:51.668Z,1.30
2019-05-29T14:03:21.983Z,1.17
2019-05-29T14:05:51.343Z,1.20
2019-05-29T14:08:22.266Z,1.00
2019-05-29T14:10:51.002Z,0.90
2019-05-29T14:13:20.519Z,1.10
2019-05-29T14:15:50.872Z,1.30
2019-05-29T14:18:20.248Z,1.40
2019-05-29T14:20:49.636Z,1.20
2019-05-29T14:23:19.990Z,1.20
2019-05-29T14:25:49.397Z,1.40
2019-05-29T14:28:19.042Z,2.50
2019-05-29T14:30:48.293Z,1.53
2019-05-29T14:33:19.889Z,3.27
2019-05-29T14:35:51.810Z,3.80
2019-05-29T14:38:21.177Z,2.17
2019-05-29T14:40:51.576Z,1.60
2019-05-29T14:43:22.086Z,2.87
2019-05-29T14:45:52.387Z,1.57
2019-05-29T14:48:24.882Z,1.43
2019-05-29T14:50:54.271Z,1.77
2019-05-29T14:53:23.541Z,1.57
2019-05-29T14:55:55.371Z,1.73
2019-05-29T14:58:27.661Z,2.07
2019-05-29T15:00:58.517Z,2.80
2019-05-29T15:03:27.850Z,1.40
2019-05-29T15:05:58.261Z,1.83
2019-05-29T15:08:28.543Z,2.03
2019-05-29T15:10:58.952Z,2.20
2019-05-29T15:13:30.095Z,4.27
2019-05-29T15:16:00.920Z,4.87
2019-05-29T15:18:33.101Z,2.70
2019-05-29T15:21:04.878Z,1.93
2019-05-29T15:23:36.825Z,2.00
2019-05-29T15:26:07.505Z,2.47
2019-05-29T15:28:38.056Z,1.80
2019-05-29T15:31:08.235Z,2.63
2019-05-29T15:33:40.654Z,2.17
2019-05-29T15:36:10.951Z,2.77
2019-05-29T15:38:40.199Z,2.70
2019-05-29T15:41:11.242Z,5.30
2019-05-29T15:43:41.965Z,3.17
2019-05-29T15:46:12.177Z,2.50
2019-05-29T15:48:43.657Z,2.20
2019-05-29T15:51:15.124Z,2.30
2019-05-29T15:53:44.475Z,2.90
2019-05-29T15:56:25.901Z,3.37
2019-05-29T15:58:48.818Z,2.90
2019-05-29T16:01:18.141Z,2.40
2019-05-29T16:03:48.538Z,2.07
2019-05-29T16:06:18.941Z,5.77
2019-05-29T16:08:51.131Z,4.57
2019-05-29T16:11:25.336Z,2.30
2019-05-29T16:13:52.598Z,2.60
2019-05-29T16:16:23.070Z,1.80
2019-05-29T16:18:53.584Z,2.10
2019-05-29T16:21:25.892Z,1.77
2019-05-29T16:24:00.240Z,1.80
2019-05-29T16:26:30.647Z,2.10
2019-05-29T16:29:00.969Z,3.00
2019-05-29T16:31:31.458Z,2.60
2019-05-29T16:34:03.011Z,1.67
2019-05-29T16:36:35.300Z,2.10
2019-05-29T16:39:08.003Z,1.80
2019-05-29T16:41:37.321Z,2.30
2019-05-29T16:44:07.986Z,1.70
2019-05-29T16:46:38.407Z,2.63
2019-05-29T16:49:12.432Z,1.90
2019-05-29T16:51:43.058Z,1.33
2019-05-29T16:54:14.625Z,2.60
2019-05-29T16:56:46.036Z,3.90
2019-05-29T16:59:17.622Z,5.07
2019-05-29T17:01:47.086Z,5.47
2019-05-29T17:04:17.662Z,4.80
2019-05-29T17:06:48.103Z,2.90
2019-05-29T17:09:18.312Z,2.23
2019-05-29T17:11:48.703Z,1.73
2019-05-29T17:14:20.834Z,2.20
2019-05-29T17:16:50.603Z,2.13
2019-05-29T17:19:25.182Z,1.90
2019-05-29T17:21:55.150Z,1.60
2019-05-29T17:24:27.523Z,2.10
2019-05-29T17:26:59.694Z,4.70
2019-05-29T17:29:29.837Z,1.70
2019-05-29T17:32:01.904Z,4.63
2019-05-29T17:34:33.039Z,1.90
2019-05-29T17:37:03.418Z,1.83
2019-05-29T17:39:32.814Z,1.80
2019-05-29T17:42:02.173Z,1.60
2019-05-29T17:44:31.603Z,2.10
2019-05-29T17:47:02.045Z,2.10
2019-05-29T17:49:34.860Z,2.10
2019-05-29T17:52:05.352Z,2.43
2019-05-29T17:54:34.791Z,2.70
2019-05-29T17:57:04.314Z,7.10
2019-05-29T17:59:33.773Z,7.53
2019-05-29T18:02:04.143Z,3.90
2019-05-29T18:04:34.743Z,2.80
2019-05-29T18:07:04.437Z,2.97
2019-05-29T18:09:35.142Z,2.57
2019-05-29T18:12:05.662Z,7.53
2019-05-29T18:14:34.694Z,5.07
2019-05-29T18:17:06.982Z,4.20
2019-05-29T18:19:39.066Z,4.33
2019-05-29T18:22:07.540Z,8.53
2019-05-29T18:24:38.244Z,3.90
2019-05-29T18:27:08.908Z,3.20
2019-05-29T18:29:38.319Z,2.53
2019-05-29T18:32:08.854Z,1.90
2019-05-29T18:34:39.314Z,2.10
2019-05-29T18:37:08.607Z,2.23
2019-05-29T18:39:39.379Z,6.93
2019-05-29T18:42:11.290Z,4.90
2019-05-29T18:44:43.545Z,7.80
2019-05-29T18:47:12.321Z,3.13
2019-05-29T18:49:42.628Z,4.30
2019-05-29T18:52:13.190Z,2.27
2019-05-29T18:54:43.582Z,2.07
2019-05-29T18:57:16.253Z,6.60
2019-05-29T18:59:46.797Z,3.80
2019-05-29T19:02:16.098Z,2.43
2019-05-29T19:04:48.759Z,2.40
2019-05-29T19:07:18.135Z,2.27
2019-05-29T19:09:48.807Z,8.53
2019-05-29T19:12:19.502Z,6.27
2019-05-29T19:14:51.569Z,3.30
2019-05-29T19:17:22.018Z,3.23
2019-05-29T19:19:52.453Z,3.70
2019-05-29T19:22:22.850Z,6.30
2019-05-29T19:24:52.472Z,3.23
2019-05-29T19:27:36.960Z,3.30
2019-05-29T19:29:54.320Z,2.30
2019-05-29T19:32:25.241Z,2.47
2019-05-29T19:34:55.503Z,2.13
2019-05-29T19:37:26.138Z,3.63
2019-05-29T19:39:58.028Z,3.20
2019-05-29T19:42:30.154Z,3.10
2019-05-29T19:44:59.851Z,3.30
2019-05-29T19:47:30.638Z,2.50
2019-05-29T19:49:59.649Z,2.70
2019-05-29T19:52:29.220Z,2.90
2019-05-29T19:55:00.146Z,3.07
2019-05-29T19:57:46.544Z,3.80
2019-05-29T20:00:03.218Z,2.90
2019-05-29T20:02:32.891Z,3.40
2019-05-29T20:05:04.173Z,2.87
2019-05-29T20:07:33.829Z,3.40
2019-05-29T20:10:06.197Z,2.40
2019-05-29T20:12:38.322Z,3.00
2019-05-29T20:15:08.853Z,2.90
2019-05-29T20:17:39.277Z,3.17
2019-05-29T20:20:10.418Z,3.50
2019-05-29T20:22:39.269Z,2.70
2019-05-29T20:25:13.860Z,2.70
2019-05-29T20:27:46.414Z,2.60
2019-05-29T20:30:19.468Z,2.50
2019-05-29T20:32:50.779Z,2.33
2019-05-29T20:35:23.834Z,2.60
2019-05-29T20:37:58.932Z,2.93
2019-05-29T20:40:30.992Z,2.70
2019-05-29T20:43:03.193Z,2.97
2019-05-29T20:45:36.103Z,2.70
2019-05-29T20:48:06.518Z,2.93
2019-05-29T20:50:39.051Z,2.80
2019-05-29T20:53:10.094Z,3.40
2019-05-29T20:55:42.219Z,3.00
2019-05-29T20:58:24.412Z,2.97
2019-05-29T21:00:50.234Z,3.53
2019-05-29T21:03:22.764Z,3.40
2019-05-29T21:05:53.348Z,3.20
2019-05-29T21:08:24.073Z,3.23
2019-05-29T21:10:56.353Z,3.73
2019-05-29T21:13:25.708Z,3.73
2019-05-29T21:15:55.115Z,3.80
2019-05-29T21:18:25.694Z,3.77
2019-05-29T21:20:55.062Z,3.90
2019-05-29T21:23:26.086Z,3.50
2019-05-29T21:25:58.268Z,3.60
2019-05-29T21:28:39.771Z,3.53
2019-05-29T21:31:00.646Z,3.30
2019-05-29T21:33:31.152Z,3.13
2019-05-29T21:36:04.346Z,3.80
2019-05-29T21:38:36.091Z,3.40
2019-05-29T21:41:06.750Z,3.50
2019-05-29T21:43:39.245Z,3.60
2019-05-29T21:46:09.737Z,3.03
2019-05-29T21:48:39.056Z,3.00
2019-05-29T21:51:12.243Z,3.47
2019-05-29T21:53:41.714Z,3.00
2019-05-29T21:56:11.214Z,3.20
2019-05-29T21:58:57.252Z,3.27
2019-05-29T22:01:12.086Z,2.60
2019-05-29T22:03:42.385Z,2.90
2019-05-29T22:06:12.795Z,2.73
2019-05-29T22:08:44.986Z,2.77
2019-05-29T22:11:16.678Z,3.30
2019-05-29T22:13:46.153Z,2.67
2019-05-29T22:16:16.826Z,2.70
2019-05-29T22:18:47.219Z,2.60
2019-05-29T22:21:17.789Z,2.40
2019-05-29T22:23:47.232Z,2.60
2019-05-29T22:26:17.516Z,2.60
2019-05-29T22:28:47.903Z,2.13
2019-05-29T22:31:19.876Z,2.40
2019-05-29T22:33:51.417Z,2.50
2019-05-29T22:36:21.940Z,2.90
2019-05-29T22:38:53.409Z,2.60
2019-05-29T22:41:24.375Z,2.70
2019-05-29T22:43:53.837Z,2.50
2019-05-29T22:46:24.291Z,2.47
2019-05-29T22:48:56.000Z,2.40
2019-05-29T22:51:27.297Z,2.33
2019-05-29T22:53:57.919Z,2.70
2019-05-29T22:56:28.427Z,2.67
2019-05-29T22:59:00.265Z,2.67
2019-05-29T23:01:29.764Z,2.90
2019-05-29T23:04:00.264Z,3.20
2019-05-29T23:06:32.967Z,2.80
2019-05-29T23:09:03.268Z,2.80
2019-05-29T23:11:32.774Z,2.90
2019-05-29T23:14:03.035Z,2.73
2019-05-29T23:16:33.649Z,3.00
2019-05-29T23:19:04.587Z,2.80
2019-05-29T23:21:33.979Z,2.90
2019-05-29T23:24:05.293Z,2.80
2019-05-29T23:26:34.790Z,2.90
2019-05-29T23:29:04.256Z,3.10
2019-05-29T23:31:33.587Z,2.80
2019-05-29T23:34:04.056Z,2.90
2019-05-29T23:36:34.768Z,3.00
2019-05-29T23:39:07.404Z,2.80
2019-05-29T23:41:39.479Z,2.80
2019-05-29T23:44:08.849Z,3.20
2019-05-29T23:46:39.247Z,3.20
2019-05-29T23:49:09.717Z,3.30
2019-05-29T23:51:40.077Z,2.80
2019-05-29T23:54:10.384Z,2.97
2019-05-29T23:56:40.764Z,3.20
2019-05-29T23:59:10.063Z,3.13
